Time,TemperatureF,DewpointF,PressureIn,WindDirection,WindDirectionDegrees,WindSpeedMPH,WindSpeedGustMPH,Humidity,HourlyPrecipIn,Conditions,Clouds,dailyrainin,SoftwareType,DateUTC
2013-09-19 00:07:00,63.5,62.9,29.95,WSW,247,0.0,-999.0,98,-99.99,,,0.00,Acu-Link.com,2013-09-19 04:07:00,
2013-09-19 00:22:00,63.1,62.8,29.95,WNW,292,0.0,-999.0,99,-99.99,,,0.00,Acu-Link.com,2013-09-19 04:22:00,
2013-09-19 00:37:00,62.8,62.5,29.95,West,270,0.0,-999.0,99,-99.99,,,0.00,Acu-Link.com,2013-09-19 04:37:00,
2013-09-19 00:52:00,62.4,62.1,29.95,West,270,0.0,-999.0,99,-99.99,,,0.00,Acu-Link.com,2013-09-19 04:52:00,
2013-09-19 01:07:00,62.1,61.8,29.95,WSW,247,0.0,-999.0,99,-99.99,,,0.00,Acu-Link.com,2013-09-19 05:07:00,
2013-09-19 01:23:00,61.9,61.6,29.95,WSW,247,0.0,-999.0,99,-99.99,,,0.00,Acu-Link.com,2013-09-19 05:23:00,
2013-09-19 01:38:00,61.3,61.0,29.95,WSW,247,0.0,-999.0,99,-99.99,,,0.00,Acu-Link.com,2013-09-19 05:38:00,
2013-09-19 01:53:00,61.2,60.9,29.95,SW,225,0.0,-999.0,99,-99.99,,,0.00,Acu-Link.com,2013-09-19 05:53:00,
2013-09-19 02:08:00,61.2,60.9,29.96,WSW,247,0.0,-999.0,99,-99.99,,,0.00,Acu-Link.com,2013-09-19 06:08:00,
2013-09-19 02:23:00,61.3,61.0,29.96,WSW,247,0.0,-999.0,99,-99.99,,,0.00,Acu-Link.com,2013-09-19 06:23:00,
2013-09-19 02:38:00,61.0,60.7,29.95,WSW,247,0.0,-999.0,99,-99.99,,,0.00,Acu-Link.com,2013-09-19 06:38:00,
2013-09-19 02:53:00,60.8,60.5,29.96,SSW,202,0.0,-999.0,99,-99.99,,,0.00,Acu-Link.com,2013-09-19 06:53:00,
2013-09-19 03:08:00,60.8,60.5,29.96,SSW,202,0.0,-999.0,99,-99.99,,,0.00,Acu-Link.com,2013-09-19 07:08:00,
2013-09-19 03:23:00,60.8,60.5,29.96,West,270,0.0,-999.0,99,-99.99,,,0.00,Acu-Link.com,2013-09-19 07:23:00,
2013-09-19 03:38:00,60.8,60.5,29.96,WSW,247,0.0,-999.0,99,-99.99,,,0.00,Acu-Link.com,2013-09-19 07:38:00,
2013-09-19 03:54:00,60.4,60.1,29.95,WSW,247,0.0,-999.0,99,-99.99,,,0.00,Acu-Link.com,2013-09-19 07:54:00,
2013-09-19 04:09:00,60.3,60.0,29.96,West,270,0.0,-999.0,99,-99.99,,,0.00,Acu-Link.com,2013-09-19 08:09:00,
2013-09-19 04:25:00,60.1,59.8,29.95,West,270,0.0,-999.0,99,-99.99,,,0.00,Acu-Link.com,2013-09-19 08:25:00,
2013-09-19 04:40:00,60.1,59.8,29.96,West,270,0.0,-999.0,99,-99.99,,,0.00,Acu-Link.com,2013-09-19 08:40:00,
2013-09-19 04:55:00,60.1,59.8,29.95,WSW,247,0.0,-999.0,99,-99.99,,,0.00,Acu-Link.com,2013-09-19 08:55:00,
2013-09-19 05:11:00,59.7,59.4,29.95,West,270,0.0,-999.0,99,-99.99,,,0.00,Acu-Link.com,2013-09-19 09:11:00,
2013-09-19 05:26:00,59.7,59.4,29.95,WSW,247,0.0,-999.0,99,-99.99,,,0.00,Acu-Link.com,2013-09-19 09:26:00,
2013-09-19 05:41:00,59.5,59.2,29.96,SW,225,0.0,-999.0,99,-99.99,,,0.00,Acu-Link.com,2013-09-19 09:41:00,
2013-09-19 05:56:00,59.9,59.6,29.97,SW,225,0.0,-999.0,99,-99.99,,,0.00,Acu-Link.com,2013-09-19 09:56:00,
2013-09-19 06:11:00,60.1,59.8,29.96,SW,225,0.0,-999.0,99,-99.99,,,0.00,Acu-Link.com,2013-09-19 10:11:00,
2013-09-19 06:26:00,60.6,60.3,29.97,SW,225,0.0,-999.0,99,-99.99,,,0.00,Acu-Link.com,2013-09-19 10:26:00,
2013-09-19 06:41:00,60.6,60.3,29.97,SW,225,0.0,-999.0,99,-99.99,,,0.00,Acu-Link.com,2013-09-19 10:41:00,
2013-09-19 06:56:00,60.6,60.3,29.97,WSW,247,0.0,-999.0,99,-99.99,,,0.00,Acu-Link.com,2013-09-19 10:56:00,
2013-09-19 07:12:00,61.0,60.7,29.98,SW,225,0.0,-999.0,99,-99.99,,,0.00,Acu-Link.com,2013-09-19 11:12:00,
2013-09-19 07:27:00,61.2,60.9,29.98,SSW,202,0.0,-999.0,99,-99.99,,,0.00,Acu-Link.com,2013-09-19 11:27:00,
2013-09-19 07:42:00,61.2,60.9,29.98,WSW,247,0.0,-999.0,99,-99.99,,,0.00,Acu-Link.com,2013-09-19 11:42:00,
2013-09-19 07:57:00,61.5,61.2,29.98,SW,225,0.0,-999.0,99,-99.99,,,0.00,Acu-Link.com,2013-09-19 11:57:00,
2013-09-19 08:12:00,61.9,61.6,30.00,SSW,202,0.0,-999.0,99,-99.99,,,0.00,Acu-Link.com,2013-09-19 12:12:00,
2013-09-19 08:27:00,62.1,61.8,29.99,SSW,202,0.0,-999.0,99,-99.99,,,0.00,Acu-Link.com,2013-09-19 12:27:00,
2013-09-19 08:42:00,63.0,62.7,29.99,SE,135,0.0,-999.0,99,-99.99,,,0.00,Acu-Link.com,2013-09-19 12:42:00,
2013-09-19 08:57:00,63.3,63.0,30.01,WNW,292,0.0,-999.0,99,-99.99,,,0.00,Acu-Link.com,2013-09-19 12:57:00,
2013-09-19 09:12:00,63.5,63.2,30.01,SSE,157,0.0,-999.0,99,-99.99,,,0.00,Acu-Link.com,2013-09-19 13:12:00,
2013-09-19 09:28:00,63.9,63.6,30.01,NNW,337,0.0,-999.0,99,-99.99,,,0.00,Acu-Link.com,2013-09-19 13:28:00,
2013-09-19 09:43:00,64.6,64.3,29.99,ESE,112,0.0,-999.0,99,-99.99,,,0.00,Acu-Link.com,2013-09-19 13:43:00,
2013-09-19 09:58:00,65.3,65.0,30.00,ENE,67,2.2,-999.0,99,-99.99,,,0.00,Acu-Link.com,2013-09-19 13:58:00,
2013-09-19 10:13:00,66.9,65.7,30.00,NE,45,0.0,-999.0,96,-99.99,,,0.00,Acu-Link.com,2013-09-19 14:13:00,
2013-09-19 10:28:00,73.2,67.0,29.98,ENE,67,2.2,-999.0,81,-99.99,,,0.00,Acu-Link.com,2013-09-19 14:28:00,
2013-09-19 10:43:00,77.5,66.9,29.96,ESE,112,2.7,-999.0,70,-99.99,,,0.00,Acu-Link.com,2013-09-19 14:43:00,
2013-09-19 10:58:00,81.5,66.7,29.96,West,270,0.0,-999.0,61,-99.99,,,0.00,Acu-Link.com,2013-09-19 14:58:00,
2013-09-19 11:13:00,83.1,63.6,29.97,SSW,202,2.7,-999.0,52,-99.99,,,0.00,Acu-Link.com,2013-09-19 15:13:00,
2013-09-19 11:29:00,84.0,62.8,29.97,SSW,202,1.7,-999.0,49,-99.99,,,0.00,Acu-Link.com,2013-09-19 15:29:00,
2013-09-19 11:44:00,86.0,64.0,29.95,West,270,1.7,-999.0,48,-99.99,,,0.00,Acu-Link.com,2013-09-19 15:44:00,
2013-09-19 11:59:00,85.6,63.0,29.95,WSW,247,2.2,-999.0,47,-99.99,,,0.00,Acu-Link.com,2013-09-19 15:59:00,
2013-09-19 12:14:00,86.5,63.8,29.95,SW,225,2.7,-999.0,47,-99.99,,,0.00,Acu-Link.com,2013-09-19 16:14:00,
2013-09-19 12:29:00,87.3,64.0,29.94,SW,225,4.7,-999.0,46,-99.99,,,0.00,Acu-Link.com,2013-09-19 16:29:00,
2013-09-19 12:45:00,90.0,66.4,29.94,NNW,337,2.2,-999.0,46,-99.99,,,0.00,Acu-Link.com,2013-09-19 16:45:00,
2013-09-19 13:00:00,88.7,64.6,29.93,WSW,247,3.2,-999.0,45,-99.99,,,0.00,Acu-Link.com,2013-09-19 17:00:00,
2013-09-19 13:15:00,90.0,64.5,29.91,South,180,2.7,-999.0,43,-99.99,,,0.00,Acu-Link.com,2013-09-19 17:15:00,
2013-09-19 13:30:00,90.3,64.7,29.89,WNW,292,3.7,-999.0,43,-99.99,,,0.00,Acu-Link.com,2013-09-19 17:30:00,
2013-09-19 13:45:00,90.5,64.9,29.88,ESE,112,3.2,-999.0,43,-99.99,,,0.00,Acu-Link.com,2013-09-19 17:45:00,
2013-09-19 14:01:00,93.6,66.3,29.88,SW,225,1.7,-999.0,41,-99.99,,,0.00,Acu-Link.com,2013-09-19 18:01:00,
2013-09-19 14:16:00,91.0,65.4,29.89,WNW,292,1.7,-999.0,43,-99.99,,,0.00,Acu-Link.com,2013-09-19 18:16:00,
2013-09-19 14:31:00,88.7,64.6,29.86,NE,45,4.2,-999.0,45,-99.99,,,0.00,Acu-Link.com,2013-09-19 18:31:00,
2013-09-19 14:47:00,88.3,65.5,29.86,South,180,1.7,-999.0,47,-99.99,,,0.00,Acu-Link.com,2013-09-19 18:47:00,
2013-09-19 15:02:00,88.2,66.0,29.87,South,180,3.2,-999.0,48,-99.99,,,0.00,Acu-Link.com,2013-09-19 19:02:00,
2013-09-19 15:17:00,90.1,65.9,29.85,ESE,112,4.7,-999.0,45,-99.99,,,0.00,Acu-Link.com,2013-09-19 19:17:00,
2013-09-19 15:32:00,87.1,65.6,29.83,SE,135,3.2,-999.0,49,-99.99,,,0.00,Acu-Link.com,2013-09-19 19:32:00,
2013-09-19 15:47:00,87.1,65.6,29.84,ESE,112,2.2,-999.0,49,-99.99,,,0.00,Acu-Link.com,2013-09-19 19:47:00,
2013-09-19 16:02:00,85.3,65.1,29.85,East,90,2.2,-999.0,51,-99.99,,,0.00,Acu-Link.com,2013-09-19 20:02:00,
2013-09-19 16:17:00,87.1,65.0,29.85,ENE,67,3.2,-999.0,48,-99.99,,,0.00,Acu-Link.com,2013-09-19 20:17:00,
2013-09-19 16:32:00,89.4,65.2,29.83,East,90,3.7,-999.0,45,-99.99,,,0.00,Acu-Link.com,2013-09-19 20:32:00,
2013-09-19 16:48:00,85.6,64.8,29.82,East,90,2.2,-999.0,50,-99.99,,,0.00,Acu-Link.com,2013-09-19 20:48:00,
2013-09-19 17:05:00,86.4,66.1,29.84,SSE,157,0.0,-999.0,51,-99.99,,,0.00,Acu-Link.com,2013-09-19 21:05:00,
2013-09-19 17:23:00,87.6,64.8,29.81,ESE,112,3.2,-999.0,47,-99.99,,,0.00,Acu-Link.com,2013-09-19 21:23:00,
2013-09-19 17:39:00,87.4,64.7,29.82,SE,135,2.7,-999.0,47,-99.99,,,0.00,Acu-Link.com,2013-09-19 21:39:00,
2013-09-19 17:54:00,85.8,65.0,29.84,ESE,112,0.0,-999.0,50,-99.99,,,0.00,Acu-Link.com,2013-09-19 21:54:00,
2013-09-19 18:11:00,84.2,65.7,29.82,ESE,112,0.0,-999.0,54,-99.99,,,0.00,Acu-Link.com,2013-09-19 22:11:00,
2013-09-19 18:44:00,83.8,65.4,29.84,WSW,247,0.0,-999.0,54,-99.99,,,0.00,Acu-Link.com,2013-09-19 22:44:00,
2013-09-19 19:02:00,79.9,67.5,29.83,WSW,247,0.0,-999.0,66,-99.99,,,0.00,Acu-Link.com,2013-09-19 23:02:00,
2013-09-19 19:21:00,76.8,67.5,29.82,West,270,0.0,-999.0,73,-99.99,,,0.00,Acu-Link.com,2013-09-19 23:21:00,
2013-09-19 19:41:00,74.8,67.5,29.84,West,270,0.0,-999.0,78,-99.99,,,0.00,Acu-Link.com,2013-09-19 23:41:00,
2013-09-19 19:56:00,72.5,66.7,29.82,West,270,0.0,-999.0,82,-99.99,,,0.00,Acu-Link.com,2013-09-19 23:56:00,
2013-09-19 20:11:00,71.2,66.5,29.82,West,270,0.0,-999.0,85,-99.99,,,0.00,Acu-Link.com,2013-09-20 00:11:00,
2013-09-19 20:26:00,70.2,66.5,29.84,West,270,0.0,-999.0,88,-99.99,,,0.00,Acu-Link.com,2013-09-20 00:26:00,
2013-09-19 20:41:00,69.1,65.7,29.84,West,270,0.0,-999.0,89,-99.99,,,0.00,Acu-Link.com,2013-09-20 00:41:00,
2013-09-19 20:57:00,68.4,65.3,29.84,West,270,0.0,-999.0,90,-99.99,,,0.00,Acu-Link.com,2013-09-20 00:57:00,
2013-09-19 21:12:00,67.8,65.4,29.85,WSW,247,0.0,-999.0,92,-99.99,,,0.00,Acu-Link.com,2013-09-20 01:12:00,
2013-09-19 21:28:00,67.1,65.6,29.84,West,270,0.0,-999.0,95,-99.99,,,0.00,Acu-Link.com,2013-09-20 01:28:00,
2013-09-19 21:44:00,66.7,65.2,29.86,WNW,292,0.0,-999.0,95,-99.99,,,0.00,Acu-Link.com,2013-09-20 01:44:00,
2013-09-19 21:59:00,66.2,64.7,29.84,SW,225,0.0,-999.0,95,-99.99,,,0.00,Acu-Link.com,2013-09-20 01:59:00,
2013-09-19 22:15:00,65.7,64.2,29.85,WSW,247,0.0,-999.0,95,-99.99,,,0.00,Acu-Link.com,2013-09-20 02:15:00,
2013-09-19 22:35:00,65.5,64.9,29.86,WSW,247,0.0,-999.0,98,-99.99,,,0.00,Acu-Link.com,2013-09-20 02:35:00,
2013-09-19 22:50:00,65.1,64.8,29.85,West,270,0.0,-999.0,99,-99.99,,,0.00,Acu-Link.com,2013-09-20 02:50:00,
2013-09-19 23:06:00,64.6,64.3,29.86,West,270,0.0,-999.0,99,-99.99,,,0.00,Acu-Link.com,2013-09-20 03:06:00,
2013-09-19 23:21:00,64.2,63.9,29.86,WNW,292,0.0,-999.0,99,-99.99,,,0.00,Acu-Link.com,2013-09-20 03:21:00,
2013-09-19 23:36:00,64.0,63.7,29.87,WNW,292,0.0,-999.0,99,-99.99,,,0.00,Acu-Link.com,2013-09-20 03:36:00,
2013-09-19 23:51:00,63.5,63.2,29.86,West,270,0.0,-999.0,99,-99.99,,,0.00,Acu-Link.com,2013-09-20 03:51:00,